Metar Flugplatz Niederstetten

ETHN 230720Z 12015KT 9999 FEW060 BKN090 14/12 Q1006 BLU BLU



Temperatur Niederstetten
14 Grad Celsius

QNH Niederstetten
1006
==============================================================

TAF Niederstetten:

TAF ETHN 291027Z 2911/3002 24010KT 9999 NSW FEW240 TEMPO 2911/2916 26012G22KT 9999 NSW SCT035 BKN240



Alle Angaben ohne Gewähr